sensor_id;sensor_type;location;lat;lon;timestamp;temperature;humidity
39019;DHT22;24786;51.984;5.872;2023-04-06T00:02:07;4.70;95.70
39019;DHT22;24786;51.984;5.872;2023-04-06T00:04:32;4.70;95.70
39019;DHT22;24786;51.984;5.872;2023-04-06T00:06:58;4.70;95.70
39019;DHT22;24786;51.984;5.872;2023-04-06T00:09:23;4.70;95.80
39019;DHT22;24786;51.984;5.872;2023-04-06T00:11:49;4.70;95.80
39019;DHT22;24786;51.984;5.872;2023-04-06T00:14:14;4.70;95.70
39019;DHT22;24786;51.984;5.872;2023-04-06T00:16:42;4.70;95.70
39019;DHT22;24786;51.984;5.872;2023-04-06T00:19:08;4.70;95.80
39019;DHT22;24786;51.984;5.872;2023-04-06T00:21:33;4.70;95.80
39019;DHT22;24786;51.984;5.872;2023-04-06T00:23:59;4.70;95.80
39019;DHT22;24786;51.984;5.872;2023-04-06T00:26:24;4.70;95.90
39019;DHT22;24786;51.984;5.872;2023-04-06T00:28:50;4.70;95.90
39019;DHT22;24786;51.984;5.872;2023-04-06T00:31:17;4.60;96.00
39019;DHT22;24786;51.984;5.872;2023-04-06T00:33:42;4.60;96.10
39019;DHT22;24786;51.984;5.872;2023-04-06T00:36:08;4.50;96.10
39019;DHT22;24786;51.984;5.872;2023-04-06T00:38:33;4.50;96.20
39019;DHT22;24786;51.984;5.872;2023-04-06T00:40:59;4.50;96.30
39019;DHT22;24786;51.984;5.872;2023-04-06T00:43:24;4.50;96.30
39019;DHT22;24786;51.984;5.872;2023-04-06T00:45:50;4.50;96.30
39019;DHT22;24786;51.984;5.872;2023-04-06T00:48:15;4.40;96.40
39019;DHT22;24786;51.984;5.872;2023-04-06T00:50:41;4.40;96.40
39019;DHT22;24786;51.984;5.872;2023-04-06T00:53:07;4.30;96.50
39019;DHT22;24786;51.984;5.872;2023-04-06T00:55:33;4.30;96.60
39019;DHT22;24786;51.984;5.872;2023-04-06T00:58:01;4.30;96.80
39019;DHT22;24786;51.984;5.872;2023-04-06T01:00:26;4.20;96.90
39019;DHT22;24786;51.984;5.872;2023-04-06T01:02:52;4.20;97.10
39019;DHT22;24786;51.984;5.872;2023-04-06T01:05:18;4.20;97.20
39019;DHT22;24786;51.984;5.872;2023-04-06T01:07:43;4.10;97.20
39019;DHT22;24786;51.984;5.872;2023-04-06T01:10:09;4.10;97.20
39019;DHT22;24786;51.984;5.872;2023-04-06T01:12:34;4.10;97.30
39019;DHT22;24786;51.984;5.872;2023-04-06T01:15:01;4.10;97.60
39019;DHT22;24786;51.984;5.872;2023-04-06T01:17:26;4.10;97.40
39019;DHT22;24786;51.984;5.872;2023-04-06T01:19:53;4.00;97.50
39019;DHT22;24786;51.984;5.872;2023-04-06T01:22:19;4.10;97.50
39019;DHT22;24786;51.984;5.872;2023-04-06T01:24:45;4.20;97.40
39019;DHT22;24786;51.984;5.872;2023-04-06T01:27:10;4.20;97.40
39019;DHT22;24786;51.984;5.872;2023-04-06T01:29:36;4.20;97.30
39019;DHT22;24786;51.984;5.872;2023-04-06T01:32:02;4.30;97.30
39019;DHT22;24786;51.984;5.872;2023-04-06T01:34:27;4.40;97.40
39019;DHT22;24786;51.984;5.872;2023-04-06T01:36:53;4.20;97.40
39019;DHT22;24786;51.984;5.872;2023-04-06T01:39:18;4.20;97.50
39019;DHT22;24786;51.984;5.872;2023-04-06T01:41:44;4.20;97.60
39019;DHT22;24786;51.984;5.872;2023-04-06T01:44:12;4.10;97.70
39019;DHT22;24786;51.984;5.872;2023-04-06T01:46:37;4.00;97.80
39019;DHT22;24786;51.984;5.872;2023-04-06T01:49:03;4.00;97.80
39019;DHT22;24786;51.984;5.872;2023-04-06T01:51:28;4.00;97.90
39019;DHT22;24786;51.984;5.872;2023-04-06T01:53:55;4.00;98.00
39019;DHT22;24786;51.984;5.872;2023-04-06T01:56:20;3.90;98.10
39019;DHT22;24786;51.984;5.872;2023-04-06T01:58:46;3.90;98.10
39019;DHT22;24786;51.984;5.872;2023-04-06T02:01:11;3.90;98.20
39019;DHT22;24786;51.984;5.872;2023-04-06T02:03:37;3.90;98.20
39019;DHT22;24786;51.984;5.872;2023-04-06T02:06:02;3.80;98.30
39019;DHT22;24786;51.984;5.872;2023-04-06T02:08:28;3.80;98.40
39019;DHT22;24786;51.984;5.872;2023-04-06T02:10:54;3.80;98.40
39019;DHT22;24786;51.984;5.872;2023-04-06T02:13:19;3.80;98.40
39019;DHT22;24786;51.984;5.872;2023-04-06T02:15:45;3.80;98.50
39019;DHT22;24786;51.984;5.872;2023-04-06T02:18:10;3.80;98.50
39019;DHT22;24786;51.984;5.872;2023-04-06T02:20:36;3.80;98.80
39019;DHT22;24786;51.984;5.872;2023-04-06T02:23:01;3.90;98.60
39019;DHT22;24786;51.984;5.872;2023-04-06T02:25:27;3.90;98.70
39019;DHT22;24786;51.984;5.872;2023-04-06T02:27:53;3.90;98.60
39019;DHT22;24786;51.984;5.872;2023-04-06T02:30:18;4.00;98.60
39019;DHT22;24786;51.984;5.872;2023-04-06T02:32:44;4.00;98.60
39019;DHT22;24786;51.984;5.872;2023-04-06T02:35:10;4.00;98.60
39019;DHT22;24786;51.984;5.872;2023-04-06T02:37:35;4.00;98.70
39019;DHT22;24786;51.984;5.872;2023-04-06T02:40:01;4.00;98.70
39019;DHT22;24786;51.984;5.872;2023-04-06T02:42:26;4.00;98.70
39019;DHT22;24786;51.984;5.872;2023-04-06T02:44:52;4.10;98.80
39019;DHT22;24786;51.984;5.872;2023-04-06T02:47:17;4.10;98.70
39019;DHT22;24786;51.984;5.872;2023-04-06T02:49:43;4.20;98.80
39019;DHT22;24786;51.984;5.872;2023-04-06T02:52:08;4.20;98.70
39019;DHT22;24786;51.984;5.872;2023-04-06T02:54:33;4.20;98.60
39019;DHT22;24786;51.984;5.872;2023-04-06T02:56:59;4.30;98.60
39019;DHT22;24786;51.984;5.872;2023-04-06T02:59:24;4.30;98.70
39019;DHT22;24786;51.984;5.872;2023-04-06T03:01:50;4.30;98.70
39019;DHT22;24786;51.984;5.872;2023-04-06T03:04:16;4.40;98.70
39019;DHT22;24786;51.984;5.872;2023-04-06T03:06:41;4.40;98.70
39019;DHT22;24786;51.984;5.872;2023-04-06T03:09:07;4.40;98.70
39019;DHT22;24786;51.984;5.872;2023-04-06T03:11:32;4.40;98.70
39019;DHT22;24786;51.984;5.872;2023-04-06T03:13:58;4.40;98.70
39019;DHT22;24786;51.984;5.872;2023-04-06T03:16:24;4.40;98.70
39019;DHT22;24786;51.984;5.872;2023-04-06T03:18:50;4.40;98.80
39019;DHT22;24786;51.984;5.872;2023-04-06T03:21:15;4.40;98.80
39019;DHT22;24786;51.984;5.872;2023-04-06T03:23:41;4.50;98.80
39019;DHT22;24786;51.984;5.872;2023-04-06T03:26:06;4.50;98.80
39019;DHT22;24786;51.984;5.872;2023-04-06T03:28:32;4.50;98.80
39019;DHT22;24786;51.984;5.872;2023-04-06T03:30:57;4.50;98.80
39019;DHT22;24786;51.984;5.872;2023-04-06T03:33:23;4.50;98.80
39019;DHT22;24786;51.984;5.872;2023-04-06T03:35:48;4.50;98.90
39019;DHT22;24786;51.984;5.872;2023-04-06T03:38:14;4.50;98.90
39019;DHT22;24786;51.984;5.872;2023-04-06T03:40:39;4.50;98.90
39019;DHT22;24786;51.984;5.872;2023-04-06T03:43:05;4.50;99.00
39019;DHT22;24786;51.984;5.872;2023-04-06T03:45:31;4.50;99.00
39019;DHT22;24786;51.984;5.872;2023-04-06T03:47:56;4.50;99.00
39019;DHT22;24786;51.984;5.872;2023-04-06T03:50:21;4.50;99.00
39019;DHT22;24786;51.984;5.872;2023-04-06T03:52:47;4.50;99.00
39019;DHT22;24786;51.984;5.872;2023-04-06T03:55:12;4.50;99.00
39019;DHT22;24786;51.984;5.872;2023-04-06T03:57:38;4.50;99.10
39019;DHT22;24786;51.984;5.872;2023-04-06T04:00:03;4.50;99.10
39019;DHT22;24786;51.984;5.872;2023-04-06T04:02:29;4.50;99.20
39019;DHT22;24786;51.984;5.872;2023-04-06T04:04:54;4.50;99.20
39019;DHT22;24786;51.984;5.872;2023-04-06T04:07:20;4.50;99.20
39019;DHT22;24786;51.984;5.872;2023-04-06T04:09:45;4.50;99.20
39019;DHT22;24786;51.984;5.872;2023-04-06T04:12:11;4.50;99.20
39019;DHT22;24786;51.984;5.872;2023-04-06T04:14:36;4.50;99.20
39019;DHT22;24786;51.984;5.872;2023-04-06T04:17:03;4.60;99.20
39019;DHT22;24786;51.984;5.872;2023-04-06T04:19:29;4.50;99.20
39019;DHT22;24786;51.984;5.872;2023-04-06T04:21:54;4.60;99.30
39019;DHT22;24786;51.984;5.872;2023-04-06T04:24:20;4.60;99.30
39019;DHT22;24786;51.984;5.872;2023-04-06T04:26:45;4.60;99.30
39019;DHT22;24786;51.984;5.872;2023-04-06T04:29:11;4.60;99.30
39019;DHT22;24786;51.984;5.872;2023-04-06T04:31:36;4.60;99.30
39019;DHT22;24786;51.984;5.872;2023-04-06T04:34:02;4.60;99.30
39019;DHT22;24786;51.984;5.872;2023-04-06T04:36:27;4.60;99.30
39019;DHT22;24786;51.984;5.872;2023-04-06T04:38:52;4.60;99.30
39019;DHT22;24786;51.984;5.872;2023-04-06T04:41:18;4.60;99.40
39019;DHT22;24786;51.984;5.872;2023-04-06T04:43:43;4.60;99.40
39019;DHT22;24786;51.984;5.872;2023-04-06T04:46:09;4.60;99.40
39019;DHT22;24786;51.984;5.872;2023-04-06T04:48:35;4.60;99.50
39019;DHT22;24786;51.984;5.872;2023-04-06T04:51:00;4.60;99.60
39019;DHT22;24786;51.984;5.872;2023-04-06T04:53:26;4.50;99.50
39019;DHT22;24786;51.984;5.872;2023-04-06T04:55:51;4.60;99.50
39019;DHT22;24786;51.984;5.872;2023-04-06T04:58:17;4.60;99.60
39019;DHT22;24786;51.984;5.872;2023-04-06T05:00:45;4.50;99.60
39019;DHT22;24786;51.984;5.872;2023-04-06T05:03:16;4.60;99.60
39019;DHT22;24786;51.984;5.872;2023-04-06T05:05:43;4.50;99.60
39019;DHT22;24786;51.984;5.872;2023-04-06T05:08:08;4.50;99.70
39019;DHT22;24786;51.984;5.872;2023-04-06T05:10:34;4.50;99.70
39019;DHT22;24786;51.984;5.872;2023-04-06T05:12:59;4.60;99.70
39019;DHT22;24786;51.984;5.872;2023-04-06T05:15:25;4.60;99.70
39019;DHT22;24786;51.984;5.872;2023-04-06T05:17:51;4.60;99.70
39019;DHT22;24786;51.984;5.872;2023-04-06T05:20:19;4.60;99.70
39019;DHT22;24786;51.984;5.872;2023-04-06T05:22:45;4.60;99.80
39019;DHT22;24786;51.984;5.872;2023-04-06T05:25:10;4.60;99.80
39019;DHT22;24786;51.984;5.872;2023-04-06T05:30:36;4.60;99.80
39019;DHT22;24786;51.984;5.872;2023-04-06T05:36:01;4.70;99.80
39019;DHT22;24786;51.984;5.872;2023-04-06T05:38:49;4.80;99.80
39019;DHT22;24786;51.984;5.872;2023-04-06T05:41:31;4.90;99.80
39019;DHT22;24786;51.984;5.872;2023-04-06T05:50:07;5.10;99.80
39019;DHT22;24786;51.984;5.872;2023-04-06T05:52:32;5.10;99.70
39019;DHT22;24786;51.984;5.872;2023-04-06T05:54:58;5.10;99.70
39019;DHT22;24786;51.984;5.872;2023-04-06T05:57:24;5.20;99.70
39019;DHT22;24786;51.984;5.872;2023-04-06T05:59:49;5.20;99.70
39019;DHT22;24786;51.984;5.872;2023-04-06T06:02:15;5.20;99.70
39019;DHT22;24786;51.984;5.872;2023-04-06T06:04:40;5.20;99.70
39019;DHT22;24786;51.984;5.872;2023-04-06T06:07:05;5.30;99.80
39019;DHT22;24786;51.984;5.872;2023-04-06T06:09:31;5.30;99.80
39019;DHT22;24786;51.984;5.872;2023-04-06T06:11:56;5.30;99.80
39019;DHT22;24786;51.984;5.872;2023-04-06T06:14:22;5.30;99.80
39019;DHT22;24786;51.984;5.872;2023-04-06T06:16:48;5.40;99.80
39019;DHT22;24786;51.984;5.872;2023-04-06T06:19:13;5.50;99.80
39019;DHT22;24786;51.984;5.872;2023-04-06T06:21:39;5.60;99.70
39019;DHT22;24786;51.984;5.872;2023-04-06T06:24:04;5.70;99.70
39019;DHT22;24786;51.984;5.872;2023-04-06T06:26:30;5.70;99.60
39019;DHT22;24786;51.984;5.872;2023-04-06T06:28:56;5.80;99.60
39019;DHT22;24786;51.984;5.872;2023-04-06T06:31:22;5.90;99.60
39019;DHT22;24786;51.984;5.872;2023-04-06T06:33:48;5.90;99.60
39019;DHT22;24786;51.984;5.872;2023-04-06T06:36:16;6.00;99.60
39019;DHT22;24786;51.984;5.872;2023-04-06T06:38:41;6.10;99.50
39019;DHT22;24786;51.984;5.872;2023-04-06T06:41:07;6.10;99.50
39019;DHT22;24786;51.984;5.872;2023-04-06T06:43:32;6.20;99.50
39019;DHT22;24786;51.984;5.872;2023-04-06T06:45:58;6.40;99.50
39019;DHT22;24786;51.984;5.872;2023-04-06T06:48:23;6.40;99.40
39019;DHT22;24786;51.984;5.872;2023-04-06T06:50:49;6.60;99.30
39019;DHT22;24786;51.984;5.872;2023-04-06T06:53:15;6.70;99.20
39019;DHT22;24786;51.984;5.872;2023-04-06T06:55:40;6.80;99.10
39019;DHT22;24786;51.984;5.872;2023-04-06T06:58:06;6.90;99.10
39019;DHT22;24786;51.984;5.872;2023-04-06T07:00:32;6.90;99.10
39019;DHT22;24786;51.984;5.872;2023-04-06T07:02:57;7.00;99.00
39019;DHT22;24786;51.984;5.872;2023-04-06T07:05:23;7.00;99.00
39019;DHT22;24786;51.984;5.872;2023-04-06T07:07:48;7.00;99.00
39019;DHT22;24786;51.984;5.872;2023-04-06T07:10:14;7.00;99.10
39019;DHT22;24786;51.984;5.872;2023-04-06T07:12:39;7.00;99.00
39019;DHT22;24786;51.984;5.872;2023-04-06T07:15:05;7.10;99.10
39019;DHT22;24786;51.984;5.872;2023-04-06T07:17:30;7.10;99.20
39019;DHT22;24786;51.984;5.872;2023-04-06T07:19:56;7.10;99.20
39019;DHT22;24786;51.984;5.872;2023-04-06T07:22:21;7.10;99.30
39019;DHT22;24786;51.984;5.872;2023-04-06T07:24:47;7.20;99.30
39019;DHT22;24786;51.984;5.872;2023-04-06T07:27:12;7.20;99.30
39019;DHT22;24786;51.984;5.872;2023-04-06T07:29:38;7.30;99.30
39019;DHT22;24786;51.984;5.872;2023-04-06T07:32:06;7.40;99.40
39019;DHT22;24786;51.984;5.872;2023-04-06T07:34:32;7.50;99.30
39019;DHT22;24786;51.984;5.872;2023-04-06T07:36:57;7.50;99.30
39019;DHT22;24786;51.984;5.872;2023-04-06T07:39:23;7.60;99.20
39019;DHT22;24786;51.984;5.872;2023-04-06T07:41:48;7.70;99.20
39019;DHT22;24786;51.984;5.872;2023-04-06T07:44:14;7.80;99.00
39019;DHT22;24786;51.984;5.872;2023-04-06T07:46:39;7.90;99.00
39019;DHT22;24786;51.984;5.872;2023-04-06T07:49:05;7.90;98.80
39019;DHT22;24786;51.984;5.872;2023-04-06T07:51:30;7.90;98.80
39019;DHT22;24786;51.984;5.872;2023-04-06T07:53:56;7.90;98.80
39019;DHT22;24786;51.984;5.872;2023-04-06T07:56:22;7.90;98.60
39019;DHT22;24786;51.984;5.872;2023-04-06T07:58:48;7.90;98.70
39019;DHT22;24786;51.984;5.872;2023-04-06T08:01:13;8.00;98.60
39019;DHT22;24786;51.984;5.872;2023-04-06T08:03:39;8.00;98.70
39019;DHT22;24786;51.984;5.872;2023-04-06T08:06:04;7.90;98.70
39019;DHT22;24786;51.984;5.872;2023-04-06T08:08:30;8.00;98.70
39019;DHT22;24786;51.984;5.872;2023-04-06T08:10:55;8.00;98.70
39019;DHT22;24786;51.984;5.872;2023-04-06T08:13:21;8.00;98.70
39019;DHT22;24786;51.984;5.872;2023-04-06T08:15:46;8.00;98.70
39019;DHT22;24786;51.984;5.872;2023-04-06T08:18:12;8.00;98.60
39019;DHT22;24786;51.984;5.872;2023-04-06T08:20:38;8.00;98.60
39019;DHT22;24786;51.984;5.872;2023-04-06T08:23:03;8.10;98.70
39019;DHT22;24786;51.984;5.872;2023-04-06T08:25:29;8.10;98.70
39019;DHT22;24786;51.984;5.872;2023-04-06T08:27:54;8.30;98.70
39019;DHT22;24786;51.984;5.872;2023-04-06T08:30:21;8.30;98.70
39019;DHT22;24786;51.984;5.872;2023-04-06T08:32:46;8.30;98.60
39019;DHT22;24786;51.984;5.872;2023-04-06T08:35:12;8.30;98.60
39019;DHT22;24786;51.984;5.872;2023-04-06T08:37:38;8.40;98.70
39019;DHT22;24786;51.984;5.872;2023-04-06T08:45:40;8.60;98.50
39019;DHT22;24786;51.984;5.872;2023-04-06T08:48:18;8.70;98.50
39019;DHT22;24786;51.984;5.872;2023-04-06T08:53:27;8.80;98.20
39019;DHT22;24786;51.984;5.872;2023-04-06T08:55:52;8.80;98.10
39019;DHT22;24786;51.984;5.872;2023-04-06T08:58:24;8.90;98.20
39019;DHT22;24786;51.984;5.872;2023-04-06T09:06:06;9.10;98.00
39019;DHT22;24786;51.984;5.872;2023-04-06T09:30:02;9.90;97.90
39019;DHT22;24786;51.984;5.872;2023-04-06T09:44:53;10.40;97.80
39019;DHT22;24786;51.984;5.872;2023-04-06T09:47:21;10.40;97.60
39019;DHT22;24786;51.984;5.872;2023-04-06T09:50:03;10.50;97.50
39019;DHT22;24786;51.984;5.872;2023-04-06T09:52:33;10.50;97.40
39019;DHT22;24786;51.984;5.872;2023-04-06T09:55:21;10.50;97.50
39019;DHT22;24786;51.984;5.872;2023-04-06T09:57:57;10.60;97.50
39019;DHT22;24786;51.984;5.872;2023-04-06T10:00:23;10.70;97.50
39019;DHT22;24786;51.984;5.872;2023-04-06T10:03:08;10.70;97.50
39019;DHT22;24786;51.984;5.872;2023-04-06T10:08:38;10.90;97.50
39019;DHT22;24786;51.984;5.872;2023-04-06T10:11:07;10.90;97.40
39019;DHT22;24786;51.984;5.872;2023-04-06T10:13:32;10.90;97.50
39019;DHT22;24786;51.984;5.872;2023-04-06T10:16:04;10.90;97.40
39019;DHT22;24786;51.984;5.872;2023-04-06T10:18:33;10.90;97.30
39019;DHT22;24786;51.984;5.872;2023-04-06T10:24:08;10.80;97.30
39019;DHT22;24786;51.984;5.872;2023-04-06T10:26:36;10.80;97.40
39019;DHT22;24786;51.984;5.872;2023-04-06T10:29:02;10.80;97.40
39019;DHT22;24786;51.984;5.872;2023-04-06T10:31:28;10.80;97.50
39019;DHT22;24786;51.984;5.872;2023-04-06T10:34:12;10.80;97.50
39019;DHT22;24786;51.984;5.872;2023-04-06T10:36:37;10.80;97.50
39019;DHT22;24786;51.984;5.872;2023-04-06T10:39:04;10.80;97.70
39019;DHT22;24786;51.984;5.872;2023-04-06T10:44:17;10.80;97.70
39019;DHT22;24786;51.984;5.872;2023-04-06T10:46:51;10.90;97.70
39019;DHT22;24786;51.984;5.872;2023-04-06T10:49:17;10.90;97.70
39019;DHT22;24786;51.984;5.872;2023-04-06T10:51:42;11.00;97.70
39019;DHT22;24786;51.984;5.872;2023-04-06T10:54:08;11.00;97.80
39019;DHT22;24786;51.984;5.872;2023-04-06T10:56:36;11.10;97.70
39019;DHT22;24786;51.984;5.872;2023-04-06T10:59:02;11.20;97.70
39019;DHT22;24786;51.984;5.872;2023-04-06T11:01:28;11.30;97.60
39019;DHT22;24786;51.984;5.872;2023-04-06T11:03:55;11.30;97.60
39019;DHT22;24786;51.984;5.872;2023-04-06T11:06:28;11.40;97.60
39019;DHT22;24786;51.984;5.872;2023-04-06T11:08:56;11.50;97.70
39019;DHT22;24786;51.984;5.872;2023-04-06T11:11:22;11.50;97.60
39019;DHT22;24786;51.984;5.872;2023-04-06T11:13:49;11.40;97.50
39019;DHT22;24786;51.984;5.872;2023-04-06T11:16:19;11.30;97.60
39019;DHT22;24786;51.984;5.872;2023-04-06T11:18:48;11.30;97.90
39019;DHT22;24786;51.984;5.872;2023-04-06T11:21:14;11.30;98.00
39019;DHT22;24786;51.984;5.872;2023-04-06T11:23:39;11.30;98.10
39019;DHT22;24786;51.984;5.872;2023-04-06T11:26:09;11.30;98.20
39019;DHT22;24786;51.984;5.872;2023-04-06T11:28:35;11.50;98.20
39019;DHT22;24786;51.984;5.872;2023-04-06T11:31:03;11.50;98.30
39019;DHT22;24786;51.984;5.872;2023-04-06T11:33:35;11.60;98.40
39019;DHT22;24786;51.984;5.872;2023-04-06T11:36:02;11.60;98.50
39019;DHT22;24786;51.984;5.872;2023-04-06T11:38:27;11.60;98.50
39019;DHT22;24786;51.984;5.872;2023-04-06T11:41:05;11.60;98.80
39019;DHT22;24786;51.984;5.872;2023-04-06T11:43:33;11.50;98.90
39019;DHT22;24786;51.984;5.872;2023-04-06T11:45:59;11.40;99.20
39019;DHT22;24786;51.984;5.872;2023-04-06T11:51:38;11.20;99.90
39019;DHT22;24786;51.984;5.872;2023-04-06T11:54:15;11.10;99.90
39019;DHT22;24786;51.984;5.872;2023-04-06T11:56:42;11.00;99.90
39019;DHT22;24786;51.984;5.872;2023-04-06T11:59:29;11.00;99.90
39019;DHT22;24786;51.984;5.872;2023-04-06T12:01:56;10.80;99.90
39019;DHT22;24786;51.984;5.872;2023-04-06T12:04:27;10.70;99.90
39019;DHT22;24786;51.984;5.872;2023-04-06T12:09:47;10.60;99.90
39019;DHT22;24786;51.984;5.872;2023-04-06T12:12:13;10.50;99.90
39019;DHT22;24786;51.984;5.872;2023-04-06T12:14:38;10.40;99.90
39019;DHT22;24786;51.984;5.872;2023-04-06T12:17:04;10.40;99.90
39019;DHT22;24786;51.984;5.872;2023-04-06T12:19:29;10.20;99.90
39019;DHT22;24786;51.984;5.872;2023-04-06T12:21:55;10.20;99.90
39019;DHT22;24786;51.984;5.872;2023-04-06T12:24:21;10.10;99.90
39019;DHT22;24786;51.984;5.872;2023-04-06T12:26:47;10.00;99.90
39019;DHT22;24786;51.984;5.872;2023-04-06T12:29:12;9.90;99.90
39019;DHT22;24786;51.984;5.872;2023-04-06T12:31:38;9.90;99.90
39019;DHT22;24786;51.984;5.872;2023-04-06T12:34:06;10.00;99.90
39019;DHT22;24786;51.984;5.872;2023-04-06T12:36:31;9.80;99.90
39019;DHT22;24786;51.984;5.872;2023-04-06T12:38:57;9.80;99.90
39019;DHT22;24786;51.984;5.872;2023-04-06T12:41:22;9.80;99.90
39019;DHT22;24786;51.984;5.872;2023-04-06T12:43:48;9.70;99.90
39019;DHT22;24786;51.984;5.872;2023-04-06T12:46:15;9.60;99.90
39019;DHT22;24786;51.984;5.872;2023-04-06T12:48:40;9.50;99.90
39019;DHT22;24786;51.984;5.872;2023-04-06T12:51:06;9.40;99.90
39019;DHT22;24786;51.984;5.872;2023-04-06T12:53:32;9.30;99.90
39019;DHT22;24786;51.984;5.872;2023-04-06T12:55:58;9.30;99.90
39019;DHT22;24786;51.984;5.872;2023-04-06T12:58:24;9.20;99.90
39019;DHT22;24786;51.984;5.872;2023-04-06T13:00:51;9.20;99.90
39019;DHT22;24786;51.984;5.872;2023-04-06T13:03:17;9.10;99.90
39019;DHT22;24786;51.984;5.872;2023-04-06T13:05:43;9.10;99.90
39019;DHT22;24786;51.984;5.872;2023-04-06T13:08:09;9.10;99.90
39019;DHT22;24786;51.984;5.872;2023-04-06T13:10:35;9.00;99.90
39019;DHT22;24786;51.984;5.872;2023-04-06T13:13:00;9.00;99.90
39019;DHT22;24786;51.984;5.872;2023-04-06T13:15:26;9.00;99.90
39019;DHT22;24786;51.984;5.872;2023-04-06T13:17:51;9.00;99.90
39019;DHT22;24786;51.984;5.872;2023-04-06T13:20:17;8.90;99.90
39019;DHT22;24786;51.984;5.872;2023-04-06T13:22:42;8.90;99.90
39019;DHT22;24786;51.984;5.872;2023-04-06T13:25:08;8.90;99.90
39019;DHT22;24786;51.984;5.872;2023-04-06T13:27:33;8.80;99.90
39019;DHT22;24786;51.984;5.872;2023-04-06T13:30:01;8.70;99.90
39019;DHT22;24786;51.984;5.872;2023-04-06T13:32:27;8.70;99.90
39019;DHT22;24786;51.984;5.872;2023-04-06T13:34:56;8.70;99.90
39019;DHT22;24786;51.984;5.872;2023-04-06T13:37:21;8.60;99.90
39019;DHT22;24786;51.984;5.872;2023-04-06T13:39:47;8.60;99.90
39019;DHT22;24786;51.984;5.872;2023-04-06T13:42:12;8.60;99.90
39019;DHT22;24786;51.984;5.872;2023-04-06T13:44:38;8.60;99.90
39019;DHT22;24786;51.984;5.872;2023-04-06T13:47:03;8.50;99.90
39019;DHT22;24786;51.984;5.872;2023-04-06T13:49:29;8.50;99.90
39019;DHT22;24786;51.984;5.872;2023-04-06T13:51:55;8.50;99.90
39019;DHT22;24786;51.984;5.872;2023-04-06T13:54:21;8.50;99.90
39019;DHT22;24786;51.984;5.872;2023-04-06T13:56:46;8.50;99.90
39019;DHT22;24786;51.984;5.872;2023-04-06T13:59:12;8.50;99.90
39019;DHT22;24786;51.984;5.872;2023-04-06T14:01:37;8.50;99.90
39019;DHT22;24786;51.984;5.872;2023-04-06T14:04:02;8.50;99.90
39019;DHT22;24786;51.984;5.872;2023-04-06T14:06:28;8.60;99.90
39019;DHT22;24786;51.984;5.872;2023-04-06T14:08:54;8.60;99.90
39019;DHT22;24786;51.984;5.872;2023-04-06T14:11:19;8.60;99.90
39019;DHT22;24786;51.984;5.872;2023-04-06T14:13:45;8.60;99.90
39019;DHT22;24786;51.984;5.872;2023-04-06T14:16:11;8.60;99.90
39019;DHT22;24786;51.984;5.872;2023-04-06T14:18:37;8.50;99.90
39019;DHT22;24786;51.984;5.872;2023-04-06T14:21:03;8.50;99.90
39019;DHT22;24786;51.984;5.872;2023-04-06T14:23:28;8.50;99.90
39019;DHT22;24786;51.984;5.872;2023-04-06T14:26:01;8.60;99.90
39019;DHT22;24786;51.984;5.872;2023-04-06T14:28:29;8.60;99.90
39019;DHT22;24786;51.984;5.872;2023-04-06T14:30:54;8.60;99.90
39019;DHT22;24786;51.984;5.872;2023-04-06T14:33:20;8.60;99.90
39019;DHT22;24786;51.984;5.872;2023-04-06T14:35:45;8.60;99.90
39019;DHT22;24786;51.984;5.872;2023-04-06T14:38:11;8.50;99.90
39019;DHT22;24786;51.984;5.872;2023-04-06T14:40:36;8.50;99.90
39019;DHT22;24786;51.984;5.872;2023-04-06T14:43:02;8.50;99.90
39019;DHT22;24786;51.984;5.872;2023-04-06T14:45:36;8.50;99.90
39019;DHT22;24786;51.984;5.872;2023-04-06T14:48:04;8.60;99.90
39019;DHT22;24786;51.984;5.872;2023-04-06T14:50:31;8.50;99.90
39019;DHT22;24786;51.984;5.872;2023-04-06T14:52:58;8.50;99.90
39019;DHT22;24786;51.984;5.872;2023-04-06T14:55:24;8.40;99.90
39019;DHT22;24786;51.984;5.872;2023-04-06T14:57:49;8.40;99.90
39019;DHT22;24786;51.984;5.872;2023-04-06T15:00:25;8.40;99.90
39019;DHT22;24786;51.984;5.872;2023-04-06T15:03:02;8.40;99.90
39019;DHT22;24786;51.984;5.872;2023-04-06T15:05:34;8.30;99.90
39019;DHT22;24786;51.984;5.872;2023-04-06T15:07:59;8.30;99.90
39019;DHT22;24786;51.984;5.872;2023-04-06T15:10:58;8.30;99.90
39019;DHT22;24786;51.984;5.872;2023-04-06T15:13:17;8.40;99.90
39019;DHT22;24786;51.984;5.872;2023-04-06T15:15:43;8.30;99.90
39019;DHT22;24786;51.984;5.872;2023-04-06T15:24:00;8.20;99.90
39019;DHT22;24786;51.984;5.872;2023-04-06T15:26:25;8.20;99.90
39019;DHT22;24786;51.984;5.872;2023-04-06T15:28:51;8.20;99.90
39019;DHT22;24786;51.984;5.872;2023-04-06T15:31:17;8.20;99.90
39019;DHT22;24786;51.984;5.872;2023-04-06T15:33:43;8.20;99.90
39019;DHT22;24786;51.984;5.872;2023-04-06T15:36:28;8.20;99.90
39019;DHT22;24786;51.984;5.872;2023-04-06T15:38:58;8.10;99.90
39019;DHT22;24786;51.984;5.872;2023-04-06T15:44:26;8.00;99.90
39019;DHT22;24786;51.984;5.872;2023-04-06T15:46:52;8.10;99.90
39019;DHT22;24786;51.984;5.872;2023-04-06T15:49:18;8.10;99.90
39019;DHT22;24786;51.984;5.872;2023-04-06T15:54:50;8.00;99.90
39019;DHT22;24786;51.984;5.872;2023-04-06T15:57:16;8.00;99.90
39019;DHT22;24786;51.984;5.872;2023-04-06T15:59:43;8.00;99.90
39019;DHT22;24786;51.984;5.872;2023-04-06T16:02:09;8.10;99.90
39019;DHT22;24786;51.984;5.872;2023-04-06T16:04:34;8.00;99.90
39019;DHT22;24786;51.984;5.872;2023-04-06T16:07:00;8.00;99.90
39019;DHT22;24786;51.984;5.872;2023-04-06T16:09:25;8.00;99.90
39019;DHT22;24786;51.984;5.872;2023-04-06T16:11:51;8.00;99.90
39019;DHT22;24786;51.984;5.872;2023-04-06T16:14:24;8.00;99.90
39019;DHT22;24786;51.984;5.872;2023-04-06T16:16:50;8.00;99.90
39019;DHT22;24786;51.984;5.872;2023-04-06T16:22:09;8.00;99.90
39019;DHT22;24786;51.984;5.872;2023-04-06T16:28:11;8.00;99.90
39019;DHT22;24786;51.984;5.872;2023-04-06T16:30:41;8.00;99.90
39019;DHT22;24786;51.984;5.872;2023-04-06T16:33:07;8.00;99.90
39019;DHT22;24786;51.984;5.872;2023-04-06T16:35:33;8.00;99.90
39019;DHT22;24786;51.984;5.872;2023-04-06T16:37:59;8.00;99.90
39019;DHT22;24786;51.984;5.872;2023-04-06T16:40:25;8.00;99.90
39019;DHT22;24786;51.984;5.872;2023-04-06T16:42:51;7.90;99.90
39019;DHT22;24786;51.984;5.872;2023-04-06T16:45:17;7.90;99.90
39019;DHT22;24786;51.984;5.872;2023-04-06T16:47:42;7.90;99.90
39019;DHT22;24786;51.984;5.872;2023-04-06T16:50:08;7.90;99.90
39019;DHT22;24786;51.984;5.872;2023-04-06T16:52:34;7.90;99.90
39019;DHT22;24786;51.984;5.872;2023-04-06T16:55:00;7.90;99.90
39019;DHT22;24786;51.984;5.872;2023-04-06T16:57:25;7.90;99.90
39019;DHT22;24786;51.984;5.872;2023-04-06T16:59:56;7.90;99.90
39019;DHT22;24786;51.984;5.872;2023-04-06T17:02:22;7.90;99.90
39019;DHT22;24786;51.984;5.872;2023-04-06T17:04:48;7.80;99.90
39019;DHT22;24786;51.984;5.872;2023-04-06T17:07:13;7.80;99.90
39019;DHT22;24786;51.984;5.872;2023-04-06T17:09:38;7.90;99.90
39019;DHT22;24786;51.984;5.872;2023-04-06T17:12:04;7.80;99.90